Time;durP1;ratioP1;P1;durP2;ratioP2;P2;SDS_P1;SDS_P2;PMS_P1;PMS_P2;Temp;Humidity;BMP_temperature;BMP_pressure;BME280_temperature;BME280_humidity;BME280_pressure;Samples;Min_cycle;Max_cycle;Signal;HPM_P1;HPM_P2
2022/09/20 00:00:21;;;;;;;2.10;2.00;;;;;;;;;;5036107;28;24432;-48
2022/09/20 00:02:47;;;;;;;2.30;2.10;;;;;;;;;;5041342;28;25054;-47
2022/09/20 00:05:12;;;;;;;2.72;2.53;;;;;;;;;;5037532;28;24515;-47
2022/09/20 00:07:37;;;;;;;2.90;2.70;;;;;;;;;;5040407;28;24419;-47
2022/09/20 00:10:02;;;;;;;2.80;2.60;;;;;;;;;;5040271;28;25415;-47
2022/09/20 00:12:27;;;;;;;2.77;2.57;;;;;;;;;;5043028;28;24447;-46
2022/09/20 00:14:52;;;;;;;2.42;2.30;;;;;;;;;;5044376;28;24503;-46
2022/09/20 00:17:18;;;;;;;3.78;2.30;;;;;;;;;;5045825;28;24454;-46
2022/09/20 00:19:43;;;;;;;2.30;2.10;;;;;;;;;;5044283;28;24492;-47
2022/09/20 00:22:08;;;;;;;2.00;1.80;;;;;;;;;;5044713;28;24965;-48
2022/09/20 00:24:35;;;;;;;2.03;1.90;;;;;;;;;;5042501;28;24467;-47
2022/09/20 00:27:00;;;;;;;1.90;1.70;;;;;;;;;;5033443;28;25043;-47
2022/09/20 00:29:25;;;;;;;1.60;1.30;;;;;;;;;;5035255;28;24503;-47
2022/09/20 00:31:51;;;;;;;2.30;1.52;;;;;;;;;;5043629;28;24442;-47
2022/09/20 00:37:00;;;;;;;1.30;1.20;;;;;;;;;;5031830;28;24527;-48
2022/09/20 00:39:25;;;;;;;1.63;1.20;;;;;;;;;;5041459;28;24514;-47
2022/09/20 00:41:50;;;;;;;1.30;1.20;;;;;;;;;;5042214;28;24531;-48
2022/09/20 00:44:36;;;;;;;1.20;1.10;;;;;;;;;;5040211;28;21192;-47
2022/09/20 00:47:01;;;;;;;1.33;1.23;;;;;;;;;;5044512;28;24836;-47
2022/09/20 00:49:27;;;;;;;1.27;1.10;;;;;;;;;;5033241;28;24979;-46
2022/09/20 00:51:56;;;;;;;1.30;1.20;;;;;;;;;;5039965;28;24980;-47
2022/09/20 00:54:22;;;;;;;1.58;1.48;;;;;;;;;;5043858;28;24419;-47
2022/09/20 00:56:47;;;;;;;1.55;1.45;;;;;;;;;;5038865;28;24412;-48
2022/09/20 00:59:12;;;;;;;1.60;1.50;;;;;;;;;;5039598;28;24828;-47
2022/09/20 01:01:38;;;;;;;1.73;1.63;;;;;;;;;;5034895;28;24415;-47
2022/09/20 01:04:03;;;;;;;1.90;1.80;;;;;;;;;;5042259;28;24422;-48
2022/09/20 01:06:29;;;;;;;1.70;1.43;;;;;;;;;;5041763;28;24434;-48
2022/09/20 01:08:56;;;;;;;1.80;1.70;;;;;;;;;;5044981;28;24983;-48
2022/09/20 01:11:22;;;;;;;2.22;2.10;;;;;;;;;;5036892;28;24521;-48
2022/09/20 01:13:47;;;;;;;2.28;2.08;;;;;;;;;;5043068;28;25268;-47
2022/09/20 01:16:13;;;;;;;2.20;2.10;;;;;;;;;;5037854;28;24422;-48
2022/09/20 01:18:40;;;;;;;2.40;2.20;;;;;;;;;;5033618;28;25043;-47
2022/09/20 01:21:05;;;;;;;2.20;2.10;;;;;;;;;;5044973;28;25000;-48
2022/09/20 01:23:38;;;;;;;2.47;2.38;;;;;;;;;;5041811;28;24450;-47
2022/09/20 01:26:21;;;;;;;2.50;2.40;;;;;;;;;;5037901;28;25046;-48
2022/09/20 01:28:48;;;;;;;2.60;2.40;;;;;;;;;;5037903;28;24836;-48
2022/09/20 01:31:24;;;;;;;2.80;2.60;;;;;;;;;;5027235;28;24443;-48
2022/09/20 01:33:52;;;;;;;2.72;2.63;;;;;;;;;;5041560;28;24492;-47
2022/09/20 01:36:22;;;;;;;3.13;2.83;;;;;;;;;;5040355;28;24538;-48
2022/09/20 01:39:05;;;;;;;3.10;2.90;;;;;;;;;;5039894;28;24442;-48
2022/09/20 01:41:33;;;;;;;3.30;3.10;;;;;;;;;;5040596;28;24513;-48
2022/09/20 01:44:12;;;;;;;3.40;3.20;;;;;;;;;;5039032;28;24565;-47
2022/09/20 01:46:39;;;;;;;4.07;3.78;;;;;;;;;;5038164;28;24450;-48
2022/09/20 01:49:04;;;;;;;3.10;2.90;;;;;;;;;;5034302;28;24446;-49
2022/09/20 01:51:55;;;;;;;2.67;2.58;;;;;;;;;;5043593;28;24961;-49
2022/09/20 01:54:32;;;;;;;3.20;3.00;;;;;;;;;;5038193;28;24637;-48
2022/09/20 01:57:16;;;;;;;2.90;2.70;;;;;;;;;;5032900;28;24427;-49
2022/09/20 01:59:41;;;;;;;2.90;2.70;;;;;;;;;;5036124;28;24427;-48
2022/09/20 02:02:26;;;;;;;3.38;2.55;;;;;;;;;;5031581;28;24429;-47
2022/09/20 02:04:54;;;;;;;2.83;2.63;;;;;;;;;;5044223;28;24446;-49
2022/09/20 02:07:34;;;;;;;2.70;2.50;;;;;;;;;;5046024;28;24507;-48
2022/09/20 02:10:10;;;;;;;3.45;3.25;;;;;;;;;;5029870;28;24547;-48
2022/09/20 02:12:35;;;;;;;4.10;3.80;;;;;;;;;;5044238;28;24532;-47
2022/09/20 02:15:03;;;;;;;3.50;3.20;;;;;;;;;;5041592;28;25244;-48
2022/09/20 02:17:47;;;;;;;2.97;2.78;;;;;;;;;;5045666;28;24968;-48
2022/09/20 02:20:29;;;;;;;3.40;3.10;;;;;;;;;;5045898;28;24435;-47
2022/09/20 02:22:54;;;;;;;3.40;3.20;;;;;;;;;;5038949;28;24625;-47
2022/09/20 02:25:35;;;;;;;2.95;2.75;;;;;;;;;;5047586;28;24419;-47
2022/09/20 02:28:06;;;;;;;3.40;3.20;;;;;;;;;;5032558;28;24569;-48
2022/09/20 02:30:40;;;;;;;3.72;3.42;;;;;;;;;;5032383;28;25493;-47
2022/09/20 02:33:11;;;;;;;2.90;2.70;;;;;;;;;;5041937;28;24431;-47
2022/09/20 02:35:36;;;;;;;3.80;3.50;;;;;;;;;;5047190;28;24488;-47
2022/09/20 02:38:20;;;;;;;4.03;3.20;;;;;;;;;;5046529;28;24489;-48
2022/09/20 02:41:00;;;;;;;3.30;3.10;;;;;;;;;;5039591;28;24415;-48
2022/09/20 02:43:44;;;;;;;2.60;2.50;;;;;;;;;;5043708;28;24431;-48
2022/09/20 02:46:17;;;;;;;2.80;2.60;;;;;;;;;;5038981;28;24419;-47
2022/09/20 02:48:45;;;;;;;2.80;2.70;;;;;;;;;;5030303;28;24791;-47
2022/09/20 02:51:23;;;;;;;2.90;2.70;;;;;;;;;;5037232;28;25058;-48
2022/09/20 02:54:00;;;;;;;2.80;2.60;;;;;;;;;;5045680;28;24472;-48
2022/09/20 02:56:35;;;;;;;2.55;2.35;;;;;;;;;;5047148;28;24442;-48
2022/09/20 02:59:04;;;;;;;2.90;2.70;;;;;;;;;;5038488;28;24474;-47
2022/09/20 03:01:55;;;;;;;2.70;2.50;;;;;;;;;;5040769;28;24426;-48
2022/09/20 03:04:39;;;;;;;2.70;2.50;;;;;;;;;;5046538;28;24489;-48
2022/09/20 03:07:04;;;;;;;2.40;2.30;;;;;;;;;;5040172;28;24428;-48
2022/09/20 03:09:48;;;;;;;3.22;3.00;;;;;;;;;;5038544;28;24435;-48
2022/09/20 03:12:42;;;;;;;3.50;3.20;;;;;;;;;;5038726;28;24463;-48
2022/09/20 03:15:26;;;;;;;3.80;3.60;;;;;;;;;;5035091;28;24489;-47
2022/09/20 03:18:04;;;;;;;2.95;2.80;;;;;;;;;;5036578;28;25908;-48
2022/09/20 03:20:54;;;;;;;3.90;3.60;;;;;;;;;;5033395;28;24451;-48
2022/09/20 03:23:40;;;;;;;3.60;3.30;;;;;;;;;;5032443;28;24422;-46
2022/09/20 03:26:22;;;;;;;3.45;3.25;;;;;;;;;;5041233;28;24415;-48
2022/09/20 03:28:50;;;;;;;4.00;3.80;;;;;;;;;;5043199;28;24419;-48
2022/09/20 03:31:34;;;;;;;4.20;3.90;;;;;;;;;;5030359;28;24424;-47
2022/09/20 03:34:06;;;;;;;4.05;3.75;;;;;;;;;;5044286;28;24816;-48
2022/09/20 03:36:31;;;;;;;3.80;3.60;;;;;;;;;;5041373;28;24574;-47
2022/09/20 03:39:06;;;;;;;3.47;3.28;;;;;;;;;;5043784;28;24518;-48
2022/09/20 03:41:50;;;;;;;4.60;4.20;;;;;;;;;;5037263;28;24480;-48
2022/09/20 03:44:30;;;;;;;4.10;3.80;;;;;;;;;;5042458;28;24457;-48
2022/09/20 03:47:02;;;;;;;3.92;3.70;;;;;;;;;;5041135;28;24427;-48
2022/09/20 03:49:45;;;;;;;4.35;3.80;;;;;;;;;;5039699;28;25170;-47
2022/09/20 03:52:31;;;;;;;4.40;4.00;;;;;;;;;;5034489;28;24435;-48
2022/09/20 03:55:21;;;;;;;3.80;3.50;;;;;;;;;;5038521;28;24428;-48
2022/09/20 03:58:05;;;;;;;3.60;3.40;;;;;;;;;;5038224;28;25208;-48
2022/09/20 04:00:49;;;;;;;3.95;3.58;;;;;;;;;;5034419;28;24473;-47
2022/09/20 04:03:20;;;;;;;3.80;3.60;;;;;;;;;;5039272;28;24530;-48
2022/09/20 04:05:49;;;;;;;3.60;3.40;;;;;;;;;;5043728;28;24423;-48
2022/09/20 04:08:17;;;;;;;4.00;3.70;;;;;;;;;;5044494;28;24427;-48
2022/09/20 04:10:48;;;;;;;3.40;3.10;;;;;;;;;;5040513;28;24613;-48
2022/09/20 04:13:20;;;;;;;3.63;3.42;;;;;;;;;;5037745;28;24428;-48
2022/09/20 04:15:48;;;;;;;3.30;3.10;;;;;;;;;;5031877;28;24426;-49
2022/09/20 04:18:25;;;;;;;4.93;4.53;;;;;;;;;;5036323;28;24424;-47
2022/09/20 04:21:05;;;;;;;3.90;3.70;;;;;;;;;;5051043;28;24791;-47
2022/09/20 04:23:52;;;;;;;4.10;3.90;;;;;;;;;;5051043;28;24434;-47
2022/09/20 04:26:28;;;;;;;5.20;4.90;;;;;;;;;;5035348;28;24419;-47
2022/09/20 04:28:57;;;;;;;4.63;4.32;;;;;;;;;;5034158;28;24506;-48
2022/09/20 04:31:41;;;;;;;4.50;4.20;;;;;;;;;;5040573;28;24435;-48
2022/09/20 04:34:12;;;;;;;4.73;4.43;;;;;;;;;;5031757;28;24589;-48
2022/09/20 04:36:55;;;;;;;4.30;4.00;;;;;;;;;;5024748;28;24516;-48
2022/09/20 04:39:41;;;;;;;5.90;5.47;;;;;;;;;;5023786;28;24404;-48
2022/09/20 04:42:32;;;;;;;5.95;5.55;;;;;;;;;;5027640;28;24506;-48
2022/09/20 04:45:07;;;;;;;6.80;6.20;;;;;;;;;;5036284;28;24510;-49
2022/09/20 04:47:32;;;;;;;7.28;6.78;;;;;;;;;;5040338;28;24422;-48
2022/09/20 04:50:10;;;;;;;7.47;6.88;;;;;;;;;;5037346;28;24442;-49
2022/09/20 04:52:54;;;;;;;7.03;6.43;;;;;;;;;;5032393;28;24541;-47
2022/09/20 04:55:25;;;;;;;7.30;6.80;;;;;;;;;;5025536;28;24391;-48
2022/09/20 04:58:22;;;;;;;7.35;6.85;;;;;;;;;;5034406;28;24526;-47
2022/09/20 05:01:01;;;;;;;7.18;6.57;;;;;;;;;;5032282;28;24534;-47
2022/09/20 05:03:45;;;;;;;9.02;8.32;;;;;;;;;;5031420;28;24901;-48
2022/09/20 05:06:29;;;;;;;7.25;6.65;;;;;;;;;;5031575;28;24989;-48
2022/09/20 05:08:54;;;;;;;7.97;7.37;;;;;;;;;;5033194;28;24438;-48
2022/09/20 05:11:26;;;;;;;9.20;8.40;;;;;;;;;;5037660;28;24442;-48
2022/09/20 05:14:19;;;;;;;6.90;6.40;;;;;;;;;;5027979;28;25012;-48
2022/09/20 05:17:08;;;;;;;8.30;7.50;;;;;;;;;;5030417;28;24515;-49
2022/09/20 05:19:54;;;;;;;7.15;6.65;;;;;;;;;;5031727;28;25010;-49
2022/09/20 05:22:38;;;;;;;6.97;6.38;;;;;;;;;;5033771;28;24466;-49
2022/09/20 05:25:15;;;;;;;7.38;6.78;;;;;;;;;;5036094;28;24427;-48
2022/09/20 05:27:44;;;;;;;6.70;6.20;;;;;;;;;;5045964;28;24411;-48
2022/09/20 05:30:18;;;;;;;5.80;5.30;;;;;;;;;;5034632;28;24783;-48
2022/09/20 05:32:55;;;;;;;5.90;5.40;;;;;;;;;;5026103;28;24487;-48
2022/09/20 05:35:40;;;;;;;6.47;5.97;;;;;;;;;;5026676;28;24431;-49
2022/09/20 05:38:22;;;;;;;5.40;5.00;;;;;;;;;;5025517;28;24924;-48
2022/09/20 05:41:03;;;;;;;6.40;5.80;;;;;;;;;;5044365;28;24447;-50
2022/09/20 05:43:34;;;;;;;6.37;5.80;;;;;;;;;;5045230;28;24515;-47
2022/09/20 05:46:17;;;;;;;7.03;6.43;;;;;;;;;;5050210;28;24445;-49
2022/09/20 05:48:52;;;;;;;6.85;6.25;;;;;;;;;;5041021;28;25206;-48
2022/09/20 05:51:17;;;;;;;7.65;6.95;;;;;;;;;;5030509;28;24439;-48
2022/09/20 05:54:01;;;;;;;7.20;6.70;;;;;;;;;;5035674;28;24425;-48
2022/09/20 05:56:31;;;;;;;7.72;7.03;;;;;;;;;;5029664;28;24764;-49
2022/09/20 05:59:00;;;;;;;7.10;6.50;;;;;;;;;;5045706;28;24473;-48
2022/09/20 06:01:32;;;;;;;7.70;7.10;;;;;;;;;;5033199;28;24791;-48
2022/09/20 06:04:16;;;;;;;7.20;6.60;;;;;;;;;;5042911;28;24430;-49
2022/09/20 06:06:53;;;;;;;7.80;7.10;;;;;;;;;;5030903;28;25068;-48
2022/09/20 06:09:28;;;;;;;7.22;6.63;;;;;;;;;;5043710;28;24863;-49
2022/09/20 06:11:57;;;;;;;7.30;6.70;;;;;;;;;;5041242;28;24506;-49
2022/09/20 06:14:41;;;;;;;6.90;6.30;;;;;;;;;;5041644;28;24462;-49
2022/09/20 06:17:06;;;;;;;7.63;7.00;;;;;;;;;;5046038;28;24497;-49
2022/09/20 06:19:46;;;;;;;8.20;7.40;;;;;;;;;;5036796;28;24501;-48
2022/09/20 06:22:22;;;;;;;8.13;7.50;;;;;;;;;;5037179;28;24810;-49
2022/09/20 06:25:09;;;;;;;9.23;8.52;;;;;;;;;;5039208;28;24542;-47
2022/09/20 06:27:37;;;;;;;9.38;8.57;;;;;;;;;;5026479;28;25044;-48
2022/09/20 06:30:04;;;;;;;8.43;7.72;;;;;;;;;;5026820;28;24459;-47
2022/09/20 06:32:30;;;;;;;10.00;9.10;;;;;;;;;;5037165;28;24464;-49
2022/09/20 06:34:57;;;;;;;9.55;8.65;;;;;;;;;;5035197;28;24431;-48
2022/09/20 06:43:13;;;;;;;7.50;6.90;;;;;;;;;;5035413;28;24858;-48
2022/09/20 06:45:38;;;;;;;8.00;7.40;;;;;;;;;;5045255;28;24468;-47
2022/09/20 06:48:04;;;;;;;7.20;6.70;;;;;;;;;;5026661;28;24436;-47
2022/09/20 06:50:29;;;;;;;7.38;6.78;;;;;;;;;;5031028;28;24514;-51
2022/09/20 06:52:55;;;;;;;7.80;7.10;;;;;;;;;;5038090;28;24851;-48
2022/09/20 06:55:26;;;;;;;7.37;6.77;;;;;;;;;;5029095;28;24418;-47
2022/09/20 06:57:52;;;;;;;6.05;5.45;;;;;;;;;;5030250;28;24474;-46
2022/09/20 07:00:17;;;;;;;5.70;5.20;;;;;;;;;;5047647;28;24426;-47
2022/09/20 07:02:43;;;;;;;6.40;6.00;;;;;;;;;;5048336;28;25012;-48
2022/09/20 07:05:21;;;;;;;7.05;6.45;;;;;;;;;;5030838;28;24408;-49
2022/09/20 07:07:46;;;;;;;6.53;6.07;;;;;;;;;;5028801;28;24491;-49
2022/09/20 07:10:12;;;;;;;6.23;5.63;;;;;;;;;;5028679;28;25020;-49
2022/09/20 07:12:38;;;;;;;6.15;5.75;;;;;;;;;;5031519;28;24454;-49
2022/09/20 07:15:03;;;;;;;8.80;6.97;;;;;;;;;;5027116;28;24435;-49
2022/09/20 07:17:28;;;;;;;7.90;7.20;;;;;;;;;;5042668;28;24411;-49
2022/09/20 07:19:55;;;;;;;6.70;6.20;;;;;;;;;;5048402;28;24402;-49
2022/09/20 07:22:20;;;;;;;7.78;7.07;;;;;;;;;;5040139;28;24804;-48
2022/09/20 07:24:47;;;;;;;7.13;6.43;;;;;;;;;;5035882;28;25046;-48
2022/09/20 07:27:12;;;;;;;8.02;7.22;;;;;;;;;;5037594;28;24416;-48
2022/09/20 07:29:37;;;;;;;8.00;7.30;;;;;;;;;;5028401;28;24822;-48
2022/09/20 07:32:02;;;;;;;6.95;6.40;;;;;;;;;;5028240;28;24380;-48
2022/09/20 07:34:28;;;;;;;7.63;6.97;;;;;;;;;;5028495;28;24542;-49
2022/09/20 07:36:53;;;;;;;8.75;7.85;;;;;;;;;;5027986;28;24419;-49
2022/09/20 07:39:18;;;;;;;8.77;7.97;;;;;;;;;;5027934;28;24400;-48
2022/09/20 07:41:49;;;;;;;9.17;7.80;;;;;;;;;;5028103;28;24420;-49
2022/09/20 07:44:23;;;;;;;8.82;8.13;;;;;;;;;;5038214;28;24515;-48
2022/09/20 07:46:52;;;;;;;9.43;8.63;;;;;;;;;;5039674;28;24430;-48
2022/09/20 07:49:17;;;;;;;8.83;8.03;;;;;;;;;;5034957;28;24454;-49
2022/09/20 07:51:42;;;;;;;10.10;9.10;;;;;;;;;;5040716;28;24751;-49
2022/09/20 07:54:08;;;;;;;10.53;9.63;;;;;;;;;;5027521;28;25030;-47
2022/09/20 07:56:33;;;;;;;9.87;8.87;;;;;;;;;;5028023;28;24530;-46
2022/09/20 07:58:58;;;;;;;11.20;10.27;;;;;;;;;;5030117;28;24981;-48
2022/09/20 08:01:23;;;;;;;9.60;8.80;;;;;;;;;;5029982;28;24527;-49
2022/09/20 08:03:49;;;;;;;9.30;8.50;;;;;;;;;;5027373;28;24399;-48
2022/09/20 08:06:15;;;;;;;10.48;9.48;;;;;;;;;;5027334;28;25330;-48
2022/09/20 08:08:41;;;;;;;10.18;9.18;;;;;;;;;;5029668;28;24469;-49
2022/09/20 08:11:06;;;;;;;10.27;9.38;;;;;;;;;;5029940;28;24535;-47
2022/09/20 08:13:35;;;;;;;8.90;8.20;;;;;;;;;;5027325;28;24391;-48
2022/09/20 08:16:02;;;;;;;9.85;8.90;;;;;;;;;;5028830;28;24427;-49
2022/09/20 08:18:27;;;;;;;9.30;8.60;;;;;;;;;;5041256;28;24424;-50
2022/09/20 08:20:54;;;;;;;11.27;10.27;;;;;;;;;;5036926;28;24435;-48
2022/09/20 08:23:19;;;;;;;10.65;9.75;;;;;;;;;;5027242;28;24794;-49
2022/09/20 08:25:44;;;;;;;10.00;9.10;;;;;;;;;;5027333;28;25294;-49
2022/09/20 08:28:09;;;;;;;11.80;10.70;;;;;;;;;;5026827;28;24475;-49
2022/09/20 08:30:34;;;;;;;11.77;10.68;;;;;;;;;;5029441;28;24529;-49
2022/09/20 08:33:02;;;;;;;11.20;10.20;;;;;;;;;;5041064;28;24925;-46
2022/09/20 08:35:28;;;;;;;11.13;10.20;;;;;;;;;;5027887;28;24430;-48
2022/09/20 08:37:53;;;;;;;11.87;10.80;;;;;;;;;;5026222;28;24467;-48
2022/09/20 08:40:20;;;;;;;11.53;10.63;;;;;;;;;;5026615;28;24424;-48
2022/09/20 08:42:45;;;;;;;12.27;11.18;;;;;;;;;;5027466;28;24957;-48
2022/09/20 08:45:16;;;;;;;12.30;11.20;;;;;;;;;;5033521;28;24427;-48
2022/09/20 08:47:49;;;;;;;12.52;11.35;;;;;;;;;;5026547;28;24850;-48
2022/09/20 08:50:14;;;;;;;10.80;10.00;;;;;;;;;;5027441;28;24435;-48
2022/09/20 08:52:43;;;;;;;11.20;10.30;;;;;;;;;;5028213;28;25086;-48
2022/09/20 08:55:14;;;;;;;10.20;9.30;;;;;;;;;;5043443;28;24909;-48
2022/09/20 08:57:39;;;;;;;10.25;9.43;;;;;;;;;;5046450;28;24987;-48
2022/09/20 09:00:05;;;;;;;8.70;8.00;;;;;;;;;;5028125;28;24428;-48
2022/09/20 09:02:31;;;;;;;8.07;7.47;;;;;;;;;;5028022;28;24932;-48
2022/09/20 09:04:56;;;;;;;9.77;8.98;;;;;;;;;;5026326;28;24485;-48
2022/09/20 09:07:22;;;;;;;9.00;8.10;;;;;;;;;;5030405;28;24434;-47
2022/09/20 09:09:50;;;;;;;8.23;7.43;;;;;;;;;;5046104;28;24423;-47
2022/09/20 09:12:29;;;;;;;7.35;6.70;;;;;;;;;;5037589;28;24420;-47
2022/09/20 09:14:59;;;;;;;7.20;6.60;;;;;;;;;;5026173;28;24838;-47
2022/09/20 09:17:26;;;;;;;6.18;5.68;;;;;;;;;;5027332;28;24865;-47
2022/09/20 09:19:52;;;;;;;6.35;5.80;;;;;;;;;;5046199;28;24394;-47
2022/09/20 09:22:38;;;;;;;6.03;5.63;;;;;;;;;;5040722;28;24432;-48
2022/09/20 09:25:13;;;;;;;6.13;5.53;;;;;;;;;;5025826;28;24419;-48
2022/09/20 09:27:52;;;;;;;6.03;5.43;;;;;;;;;;5025793;28;24392;-48
2022/09/20 09:30:19;;;;;;;5.60;5.20;;;;;;;;;;5040514;28;24844;-47
2022/09/20 09:32:44;;;;;;;5.90;5.40;;;;;;;;;;5045711;28;24449;-48
2022/09/20 09:35:35;;;;;;;5.40;5.00;;;;;;;;;;5032010;28;24424;-48
2022/09/20 09:38:01;;;;;;;7.07;5.88;;;;;;;;;;5041098;28;25257;-47
2022/09/20 09:40:30;;;;;;;5.60;5.20;;;;;;;;;;5025890;28;24503;-47
2022/09/20 09:42:59;;;;;;;6.40;5.90;;;;;;;;;;5035440;28;24403;-48
2022/09/20 09:45:33;;;;;;;6.70;6.20;;;;;;;;;;5045867;28;24423;-47
2022/09/20 09:48:00;;;;;;;6.60;6.10;;;;;;;;;;5028603;28;24435;-48
2022/09/20 09:50:27;;;;;;;7.70;7.10;;;;;;;;;;5025650;28;24478;-48
2022/09/20 09:52:57;;;;;;;7.72;7.13;;;;;;;;;;5026041;28;24802;-47
2022/09/20 09:55:22;;;;;;;7.00;6.30;;;;;;;;;;5025874;28;24388;-48
2022/09/20 09:57:54;;;;;;;7.00;6.40;;;;;;;;;;5026445;28;24420;-46
2022/09/20 10:00:21;;;;;;;7.07;6.47;;;;;;;;;;5025812;28;24400;-47
2022/09/20 10:02:46;;;;;;;6.22;5.72;;;;;;;;;;5025778;28;24493;-47
2022/09/20 10:05:26;;;;;;;6.60;6.10;;;;;;;;;;5026021;28;24797;-47
2022/09/20 10:08:01;;;;;;;5.50;5.10;;;;;;;;;;5037191;28;24991;-47
2022/09/20 10:10:32;;;;;;;4.40;4.10;;;;;;;;;;5045234;28;24458;-48
2022/09/20 10:13:13;;;;;;;6.10;5.70;;;;;;;;;;5045501;28;24384;-48
2022/09/20 10:15:43;;;;;;;5.40;4.90;;;;;;;;;;5045489;28;24388;-48
2022/09/20 10:18:16;;;;;;;6.10;5.70;;;;;;;;;;5040880;28;24426;-48
2022/09/20 10:20:52;;;;;;;5.50;5.05;;;;;;;;;;5045929;28;24406;-48
2022/09/20 10:23:26;;;;;;;4.60;4.30;;;;;;;;;;5045071;28;24461;-48
2022/09/20 10:26:09;;;;;;;4.80;4.40;;;;;;;;;;5046963;28;24507;-47
2022/09/20 10:29:10;;;;;;;4.95;4.55;;;;;;;;;;5040651;28;24515;-48
2022/09/20 10:31:39;;;;;;;3.88;3.58;;;;;;;;;;5046051;28;24588;-48
2022/09/20 10:34:20;;;;;;;4.20;3.97;;;;;;;;;;5048336;28;25241;-49
2022/09/20 10:36:50;;;;;;;4.50;4.20;;;;;;;;;;5048797;28;24599;-48
2022/09/20 10:39:18;;;;;;;4.70;4.30;;;;;;;;;;5044323;28;24598;-47
2022/09/20 10:44:45;;;;;;;5.00;4.60;;;;;;;;;;5029067;28;24438;-48
2022/09/20 10:47:20;;;;;;;4.60;4.20;;;;;;;;;;5028851;28;24814;-48
2022/09/20 10:50:03;;;;;;;3.70;3.30;;;;;;;;;;5032746;28;24511;-47
2022/09/20 10:52:30;;;;;;;3.53;3.23;;;;;;;;;;5031196;28;24438;-48
2022/09/20 10:54:58;;;;;;;2.95;2.75;;;;;;;;;;5029684;28;24458;-48
2022/09/20 10:57:40;;;;;;;2.70;2.60;;;;;;;;;;5029719;28;24424;-48
2022/09/20 11:00:19;;;;;;;3.20;3.00;;;;;;;;;;5028665;28;24384;-47
2022/09/20 11:02:54;;;;;;;3.28;3.08;;;;;;;;;;5028664;28;24496;-48
2022/09/20 11:05:27;;;;;;;3.50;3.20;;;;;;;;;;5028884;28;24380;-47
2022/09/20 11:08:05;;;;;;;3.70;3.40;;;;;;;;;;5029696;28;24981;-47
2022/09/20 11:10:32;;;;;;;3.30;3.10;;;;;;;;;;5028181;28;24431;-48
2022/09/20 11:12:59;;;;;;;2.92;2.72;;;;;;;;;;5028498;28;24418;-47
2022/09/20 11:15:28;;;;;;;3.40;3.10;;;;;;;;;;5028595;28;24953;-48
2022/09/20 11:18:02;;;;;;;3.25;2.95;;;;;;;;;;5029368;28;24423;-46
2022/09/20 11:20:29;;;;;;;2.90;2.60;;;;;;;;;;5028332;28;24419;-48
2022/09/20 11:23:14;;;;;;;3.72;2.90;;;;;;;;;;5027642;28;24407;-48
2022/09/20 11:25:44;;;;;;;3.10;2.80;;;;;;;;;;5028257;28;24411;-48
2022/09/20 11:28:19;;;;;;;2.60;2.40;;;;;;;;;;5029513;28;24543;-48
2022/09/20 11:31:05;;;;;;;2.77;2.57;;;;;;;;;;5047342;28;24659;-47
2022/09/20 11:33:35;;;;;;;2.50;2.40;;;;;;;;;;5047706;28;24415;-48
2022/09/20 11:36:01;;;;;;;2.55;2.35;;;;;;;;;;5048093;28;24423;-48
2022/09/20 11:38:26;;;;;;;3.20;2.90;;;;;;;;;;5035646;28;24989;-47
2022/09/20 11:40:59;;;;;;;3.08;2.78;;;;;;;;;;5045715;28;25013;-47
2022/09/20 11:43:27;;;;;;;2.70;2.50;;;;;;;;;;5045646;28;24402;-48
2022/09/20 11:45:55;;;;;;;3.35;3.05;;;;;;;;;;5047941;28;24503;-48
2022/09/20 11:48:22;;;;;;;3.00;2.70;;;;;;;;;;5039916;28;24450;-48
2022/09/20 11:51:03;;;;;;;2.67;2.47;;;;;;;;;;5043746;28;24571;-49
2022/09/20 11:53:35;;;;;;;2.30;2.10;;;;;;;;;;5027674;28;24980;-48
2022/09/20 11:56:06;;;;;;;2.10;2.00;;;;;;;;;;5045984;28;24431;-47
2022/09/20 11:58:43;;;;;;;1.98;1.77;;;;;;;;;;5033668;28;24427;-48
2022/09/20 12:01:11;;;;;;;2.30;2.10;;;;;;;;;;5027606;28;24416;-48
2022/09/20 12:03:38;;;;;;;2.90;2.60;;;;;;;;;;5032173;28;25044;-46
2022/09/20 12:06:08;;;;;;;2.90;2.70;;;;;;;;;;5027689;28;24396;-47
2022/09/20 12:08:37;;;;;;;3.90;3.00;;;;;;;;;;5026964;28;24442;-48
2022/09/20 12:11:09;;;;;;;2.78;2.58;;;;;;;;;;5026761;28;24420;-47
2022/09/20 12:13:36;;;;;;;3.00;2.80;;;;;;;;;;5040724;28;24458;-48
2022/09/20 12:16:05;;;;;;;3.60;3.30;;;;;;;;;;5044448;28;24455;-48
2022/09/20 12:18:31;;;;;;;3.50;3.20;;;;;;;;;;5046683;28;24403;-48
2022/09/20 12:20:59;;;;;;;2.80;2.60;;;;;;;;;;5046979;28;24979;-48
2022/09/20 12:23:40;;;;;;;2.80;2.60;;;;;;;;;;5037789;28;24412;-47
2022/09/20 12:26:12;;;;;;;2.50;2.30;;;;;;;;;;5027341;28;24408;-47
2022/09/20 12:28:39;;;;;;;3.08;2.70;;;;;;;;;;5030804;28;24451;-47
2022/09/20 12:31:32;;;;;;;2.40;2.20;;;;;;;;;;5026566;28;24443;-47
2022/09/20 12:34:23;;;;;;;2.20;2.00;;;;;;;;;;5026902;28;24427;-47
2022/09/20 12:36:54;;;;;;;2.50;2.30;;;;;;;;;;5026839;28;24478;-48
2022/09/20 12:39:26;;;;;;;2.20;2.00;;;;;;;;;;5043038;28;24511;-47
2022/09/20 12:42:21;;;;;;;2.60;2.10;;;;;;;;;;5036776;28;24432;-47
2022/09/20 12:44:49;;;;;;;2.50;2.25;;;;;;;;;;5029729;28;24477;-47
2022/09/20 12:47:17;;;;;;;2.85;2.60;;;;;;;;;;5026917;28;24479;-47
2022/09/20 12:55:26;;;;;;;2.70;2.33;;;;;;;;;;5027723;28;24502;-47
2022/09/20 12:57:53;;;;;;;3.17;2.88;;;;;;;;;;5026592;28;24439;-47
2022/09/20 13:00:29;;;;;;;3.88;2.90;;;;;;;;;;5026437;28;24407;-47
2022/09/20 13:02:56;;;;;;;3.20;2.90;;;;;;;;;;5026280;28;24546;-48
2022/09/20 13:05:39;;;;;;;3.75;3.45;;;;;;;;;;5042361;28;24782;-48
2022/09/20 13:08:12;;;;;;;3.88;3.47;;;;;;;;;;5046333;28;24407;-48
2022/09/20 13:10:39;;;;;;;2.83;2.60;;;;;;;;;;5045501;28;24420;-48
2022/09/20 13:13:12;;;;;;;2.60;2.40;;;;;;;;;;5046014;28;24746;-48
2022/09/20 13:15:38;;;;;;;3.05;2.30;;;;;;;;;;5046001;28;24413;-48
2022/09/20 13:18:04;;;;;;;1.95;1.75;;;;;;;;;;5046084;28;24395;-47
2022/09/20 13:20:33;;;;;;;2.35;2.15;;;;;;;;;;5033112;28;24431;-47
2022/09/20 13:22:58;;;;;;;2.47;2.28;;;;;;;;;;5024723;28;24403;-47
2022/09/20 13:25:24;;;;;;;2.20;2.10;;;;;;;;;;5025992;28;24407;-47
2022/09/20 13:27:52;;;;;;;2.00;1.80;;;;;;;;;;5026430;28;24396;-46
2022/09/20 13:30:19;;;;;;;2.00;1.60;;;;;;;;;;5025724;28;24412;-47
2022/09/20 13:32:44;;;;;;;1.60;1.50;;;;;;;;;;5029228;28;24473;-47
2022/09/20 13:35:09;;;;;;;2.10;2.00;;;;;;;;;;5026199;28;25212;-47
2022/09/20 13:37:43;;;;;;;2.40;1.60;;;;;;;;;;5037137;28;24856;-47
2022/09/20 13:40:22;;;;;;;1.80;1.70;;;;;;;;;;5045953;28;24498;-48
2022/09/20 13:42:48;;;;;;;1.80;1.70;;;;;;;;;;5034524;28;24514;-47
2022/09/20 13:45:15;;;;;;;2.80;1.90;;;;;;;;;;5026373;28;24419;-48
2022/09/20 13:47:42;;;;;;;2.00;1.70;;;;;;;;;;5025865;28;24989;-47
2022/09/20 13:50:42;;;;;;;1.80;1.70;;;;;;;;;;5026749;28;25005;-48
2022/09/20 13:53:14;;;;;;;3.08;1.60;;;;;;;;;;5042991;28;24573;-48
2022/09/20 13:55:40;;;;;;;2.10;1.90;;;;;;;;;;5029018;28;25137;-48
2022/09/20 13:58:07;;;;;;;2.10;1.90;;;;;;;;;;5027926;28;24642;-47
2022/09/20 14:00:34;;;;;;;2.40;2.20;;;;;;;;;;5027303;28;24392;-47
2022/09/20 14:02:59;;;;;;;1.90;1.80;;;;;;;;;;5045690;28;24427;-47
2022/09/20 14:05:25;;;;;;;2.33;1.90;;;;;;;;;;5049470;28;24453;-47
2022/09/20 14:07:51;;;;;;;1.60;0.80;;;;;;;;;;5049656;28;24403;-47
2022/09/20 14:10:30;;;;;;;0.60;0.60;;;;;;;;;;5030298;28;24451;-48
2022/09/20 14:12:57;;;;;;;0.80;0.80;;;;;;;;;;5029752;28;24439;-47
2022/09/20 14:15:22;;;;;;;1.50;0.70;;;;;;;;;;5029660;28;25281;-48
2022/09/20 14:17:50;;;;;;;1.10;0.80;;;;;;;;;;5047052;28;24400;-48
2022/09/20 14:20:16;;;;;;;0.80;0.80;;;;;;;;;;5028927;28;24403;-47
2022/09/20 14:22:42;;;;;;;0.80;0.80;;;;;;;;;;5044226;28;24424;-48
2022/09/20 14:25:13;;;;;;;1.20;1.07;;;;;;;;;;5049391;28;24742;-46
2022/09/20 14:27:38;;;;;;;1.30;1.10;;;;;;;;;;5047380;28;24391;-47
2022/09/20 14:30:04;;;;;;;1.17;1.00;;;;;;;;;;5044444;28;25007;-47
2022/09/20 14:32:37;;;;;;;1.40;0.90;;;;;;;;;;5036329;28;24472;-47
2022/09/20 14:35:04;;;;;;;0.90;0.90;;;;;;;;;;5040384;28;24447;-47
2022/09/20 14:37:30;;;;;;;1.13;1.13;;;;;;;;;;5042925;28;24391;-46
2022/09/20 14:39:56;;;;;;;2.03;1.20;;;;;;;;;;5037771;28;25346;-46
2022/09/20 14:42:28;;;;;;;1.80;1.10;;;;;;;;;;5042758;28;24423;-47
2022/09/20 14:44:53;;;;;;;1.80;1.20;;;;;;;;;;5029952;28;24432;-47
2022/09/20 14:47:25;;;;;;;1.10;1.10;;;;;;;;;;5052339;28;24702;-47
2022/09/20 14:49:50;;;;;;;1.23;1.13;;;;;;;;;;5047403;28;24546;-48
2022/09/20 14:52:25;;;;;;;0.80;0.80;;;;;;;;;;5027169;28;24477;-46
2022/09/20 14:55:09;;;;;;;1.40;1.30;;;;;;;;;;5026400;28;24423;-46
2022/09/20 14:57:34;;;;;;;1.40;1.30;;;;;;;;;;5030454;28;24822;-47
2022/09/20 15:00:03;;;;;;;1.10;1.00;;;;;;;;;;5029241;28;24477;-46
2022/09/20 15:02:28;;;;;;;1.17;1.08;;;;;;;;;;5025990;28;24451;-47
2022/09/20 15:04:56;;;;;;;1.50;1.10;;;;;;;;;;5026260;28;24423;-46
2022/09/20 15:07:21;;;;;;;1.70;1.30;;;;;;;;;;5027376;28;25257;-47
2022/09/20 15:09:46;;;;;;;1.30;1.17;;;;;;;;;;5044236;28;24533;-46
2022/09/20 15:12:13;;;;;;;1.00;0.87;;;;;;;;;;5055875;28;24411;-47
2022/09/20 15:14:41;;;;;;;0.70;0.70;;;;;;;;;;5045152;28;24742;-47
2022/09/20 15:17:12;;;;;;;1.10;1.00;;;;;;;;;;5031781;28;24506;-48
2022/09/20 15:19:37;;;;;;;1.20;1.10;;;;;;;;;;5026330;28;25362;-47
2022/09/20 15:22:02;;;;;;;1.20;1.05;;;;;;;;;;5033834;28;24431;-48
2022/09/20 15:24:27;;;;;;;1.10;1.00;;;;;;;;;;5045129;28;24853;-48